createdAt,value
2018-11-22T12:16:26.218Z,45.60
2018-11-22T12:17:30.451Z,45.30
2018-11-22T12:18:37.001Z,44.90
2018-11-22T12:19:38.748Z,44.60
2018-11-22T12:20:42.910Z,44.20
2018-11-22T12:21:47.102Z,43.90
2018-11-22T12:22:52.922Z,43.60
2018-11-22T12:23:56.991Z,43.40
2018-11-22T12:25:01.125Z,43.10
2018-11-22T12:26:05.822Z,42.90
2018-11-22T12:27:09.963Z,42.70
2018-11-22T12:28:14.110Z,42.60
2018-11-22T12:29:18.363Z,42.90
2018-11-22T12:30:23.715Z,42.10
2018-11-22T12:31:28.017Z,41.80
2018-11-22T12:32:32.228Z,41.60
2018-11-22T12:33:39.338Z,41.30
2018-11-22T12:34:48.871Z,41.00
2018-11-22T12:35:58.374Z,40.90
2018-11-22T12:37:07.645Z,40.60
2018-11-22T12:38:17.073Z,40.40
2018-11-22T12:39:21.254Z,40.30
2018-11-22T12:40:25.303Z,40.00
2018-11-22T12:41:29.327Z,39.60
2018-11-22T12:42:33.501Z,39.40
2018-11-22T12:43:37.791Z,39.00
2018-11-22T12:44:41.980Z,38.90
2018-11-22T12:45:46.188Z,38.60
2018-11-22T12:46:50.311Z,38.50
2018-11-22T12:47:56.236Z,38.30
2018-11-22T12:49:00.356Z,38.40
2018-11-22T12:50:05.133Z,38.30
2018-11-22T12:51:09.368Z,38.20
2018-11-22T12:52:13.561Z,38.20
2018-11-22T12:53:17.773Z,37.90
2018-11-22T12:54:22.005Z,37.80
2018-11-22T12:55:26.224Z,37.80
2018-11-22T12:56:30.548Z,37.40
2018-11-22T12:57:34.821Z,37.20
2018-11-22T12:58:39.373Z,36.80
2018-11-22T12:59:43.548Z,36.30
2018-11-22T13:00:47.668Z,35.90
2018-11-22T13:01:51.844Z,35.50
2018-11-22T13:02:56.107Z,35.20
2018-11-22T13:04:00.214Z,34.80
2018-11-22T13:05:04.765Z,34.50
2018-11-22T13:06:08.965Z,34.20
2018-11-22T13:07:13.168Z,33.90
2018-11-22T13:08:17.380Z,34.40
2018-11-22T13:09:21.434Z,33.70
2018-11-22T13:10:25.496Z,33.70
2018-11-22T13:11:29.577Z,33.90
2018-11-22T13:12:33.696Z,33.90
2018-11-22T13:13:37.844Z,34.00
2018-11-22T13:14:42.109Z,34.20
2018-11-22T13:15:46.368Z,34.30
2018-11-22T13:16:51.330Z,34.60
2018-11-22T13:17:55.522Z,34.90
2018-11-22T13:19:00.415Z,35.20
2018-11-22T13:20:06.029Z,35.70
2018-11-22T13:21:10.788Z,36.20
2018-11-22T13:22:14.968Z,36.70
2018-11-22T13:23:19.164Z,37.20
2018-11-22T13:24:23.228Z,37.70
2018-11-22T13:25:27.283Z,38.00
2018-11-22T13:26:31.427Z,38.20
2018-11-22T13:27:35.568Z,38.50
2018-11-22T13:28:39.693Z,38.60
2018-11-22T13:29:43.800Z,38.60
2018-11-22T13:30:47.871Z,38.70
2018-11-22T13:31:52.002Z,38.80
2018-11-22T13:32:56.690Z,38.70
2018-11-22T13:34:00.801Z,38.60
2018-11-22T13:35:06.018Z,38.50
2018-11-22T13:36:10.149Z,38.40
2018-11-22T13:37:14.469Z,38.30
2018-11-22T13:38:22.115Z,38.20
2018-11-22T13:39:26.272Z,38.00
2018-11-22T13:40:30.408Z,37.90
2018-11-22T13:41:34.471Z,37.70
2018-11-22T13:42:39.086Z,37.50
2018-11-22T13:43:43.381Z,37.30
2018-11-22T13:44:47.501Z,37.20
2018-11-22T13:45:51.603Z,37.00
2018-11-22T13:46:55.735Z,36.70
2018-11-22T13:48:00.038Z,36.50
2018-11-22T13:49:04.616Z,36.20
2018-11-22T13:50:14.255Z,36.00
2018-11-22T13:51:18.437Z,35.70
2018-11-22T13:52:23.070Z,35.30
2018-11-22T13:53:27.176Z,35.00
2018-11-22T13:54:31.294Z,34.60
2018-11-22T13:55:35.529Z,34.40
2018-11-22T13:56:39.769Z,34.00
2018-11-22T13:57:44.020Z,33.70
2018-11-22T13:58:48.169Z,33.50
2018-11-22T13:59:58.199Z,33.30
2018-11-22T14:00:56.687Z,33.10
2018-11-22T14:02:00.759Z,33.10
2018-11-22T14:03:06.075Z,33.70
2018-11-22T14:04:10.983Z,33.10
2018-11-22T14:05:15.079Z,33.20
2018-11-22T14:06:19.284Z,33.30
2018-11-22T14:07:23.429Z,33.40
2018-11-22T14:08:27.519Z,33.50
2018-11-22T14:09:31.645Z,33.70
2018-11-22T14:10:35.774Z,33.80
2018-11-22T14:11:39.875Z,34.10
2018-11-22T14:12:43.938Z,34.30
2018-11-22T14:13:47.957Z,34.50
2018-11-22T14:14:52.105Z,34.70
2018-11-22T14:15:56.845Z,34.80
2018-11-22T14:17:00.983Z,35.10
2018-11-22T14:18:05.897Z,35.40
2018-11-22T14:19:10.050Z,35.80
2018-11-22T14:20:16.623Z,36.20
2018-11-22T14:21:20.698Z,36.60
2018-11-22T14:22:24.799Z,36.90
2018-11-22T14:23:29.006Z,37.10
2018-11-22T14:24:33.114Z,37.30
2018-11-22T14:25:37.255Z,37.60
2018-11-22T14:26:41.403Z,37.70
2018-11-22T14:27:46.488Z,37.90
2018-11-22T14:28:50.639Z,38.10
2018-11-22T14:29:54.717Z,38.20
2018-11-22T14:30:58.887Z,38.20
2018-11-22T14:32:03.034Z,38.50
2018-11-22T14:33:07.146Z,38.60
2018-11-22T14:34:11.316Z,38.70
2018-11-22T14:35:16.677Z,38.80
2018-11-22T14:36:20.923Z,39.00
2018-11-22T14:37:26.321Z,39.00
2018-11-22T14:38:30.570Z,39.10
2018-11-22T14:39:34.689Z,39.30
2018-11-22T14:40:38.874Z,39.80
2018-11-22T14:41:42.944Z,39.50
2018-11-22T14:42:48.030Z,39.70
2018-11-22T14:43:52.198Z,39.70
2018-11-22T14:44:56.287Z,39.80
2018-11-22T14:46:00.420Z,39.80
2018-11-22T14:47:04.516Z,39.90
2018-11-22T14:48:08.644Z,40.00
2018-11-22T14:49:12.738Z,40.70
2018-11-22T14:50:19.786Z,40.10
2018-11-22T14:51:33.706Z,40.10
2018-11-22T14:52:38.198Z,40.20
2018-11-22T14:53:42.322Z,40.20
2018-11-22T14:54:46.472Z,40.30
2018-11-22T14:55:50.580Z,40.40
2018-11-22T14:56:54.791Z,40.50
2018-11-22T14:57:59.008Z,40.60
2018-11-22T14:59:03.163Z,40.70
2018-11-22T15:00:10.933Z,40.90
2018-11-22T15:01:15.099Z,41.10
2018-11-22T15:02:19.232Z,41.20
2018-11-22T15:03:24.167Z,41.40
2018-11-22T15:04:28.309Z,41.60
2018-11-22T15:05:32.521Z,41.70
2018-11-22T15:06:36.588Z,41.80
2018-11-22T15:07:41.420Z,42.00
2018-11-22T15:08:45.505Z,42.10
2018-11-22T15:09:49.581Z,42.00
2018-11-22T15:10:53.818Z,42.30
2018-11-22T15:11:57.948Z,42.40
2018-11-22T15:13:02.027Z,42.50
2018-11-22T15:14:06.371Z,42.60
2018-11-22T15:15:13.897Z,42.60
2018-11-22T15:16:17.987Z,42.80
2018-11-22T15:17:22.116Z,42.80
2018-11-22T15:18:26.275Z,43.00
2018-11-22T15:19:30.469Z,43.10
2018-11-22T15:20:34.678Z,43.20
2018-11-22T15:21:38.801Z,43.30
2018-11-22T15:22:43.710Z,43.40
2018-11-22T15:23:48.271Z,43.60
2018-11-22T15:24:52.454Z,43.70
2018-11-22T15:25:56.545Z,43.80
2018-11-22T15:27:00.723Z,44.00
2018-11-22T15:28:04.902Z,44.00
2018-11-22T15:29:09.042Z,44.20
2018-11-22T15:30:15.679Z,44.40
2018-11-22T15:31:19.809Z,44.50
2018-11-22T15:32:24.011Z,44.70
2018-11-22T15:33:28.152Z,44.70
2018-11-22T15:34:32.386Z,44.90
2018-11-22T15:35:36.497Z,45.10
2018-11-22T15:36:40.674Z,45.20
2018-11-22T15:37:45.144Z,46.10
2018-11-22T15:38:49.341Z,45.40
2018-11-22T15:39:53.393Z,45.60
2018-11-22T15:40:57.580Z,45.80
2018-11-22T15:42:01.775Z,45.90
2018-11-22T15:43:06.027Z,45.90
2018-11-22T15:44:10.129Z,46.10
2018-11-22T15:45:15.699Z,46.30
2018-11-22T15:46:19.822Z,46.40
2018-11-22T15:47:24.196Z,46.50
2018-11-22T15:48:28.422Z,46.70
2018-11-22T15:49:32.596Z,46.50
2018-11-22T15:50:36.774Z,46.90
2018-11-22T15:51:40.897Z,47.00
2018-11-22T15:52:45.129Z,47.10
2018-11-22T15:53:49.321Z,47.30
2018-11-22T15:54:53.469Z,47.40
2018-11-22T15:55:57.577Z,47.50
2018-11-22T15:57:01.727Z,47.70
2018-11-22T15:58:06.187Z,47.80
2018-11-22T15:59:10.467Z,48.00
2018-11-22T16:00:18.285Z,48.10
2018-11-22T16:01:22.483Z,48.20
2018-11-22T16:02:26.949Z,48.30
2018-11-22T16:03:31.069Z,48.40
2018-11-22T16:04:35.457Z,48.40
2018-11-22T16:05:39.680Z,48.60
2018-11-22T16:06:43.819Z,48.70
2018-11-22T16:07:48.040Z,48.80
2018-11-22T16:08:52.135Z,48.90
2018-11-22T16:09:56.265Z,49.00
2018-11-22T16:11:00.365Z,49.00
2018-11-22T16:12:04.853Z,49.10
2018-11-22T16:13:10.412Z,49.20
2018-11-22T16:14:14.607Z,49.30
2018-11-22T16:15:21.069Z,49.40
2018-11-22T16:16:25.175Z,49.40
2018-11-22T16:17:29.222Z,49.50
2018-11-22T16:18:33.415Z,49.60
2018-11-22T16:19:37.510Z,49.90
2018-11-22T16:20:41.714Z,49.90
2018-11-22T16:21:45.894Z,50.00
2018-11-22T16:22:50.009Z,50.10
2018-11-22T16:23:54.123Z,50.10
2018-11-22T16:24:58.275Z,50.30
2018-11-22T16:26:02.637Z,50.40
2018-11-22T16:27:07.767Z,50.50
2018-11-22T16:28:12.387Z,50.60
2018-11-22T16:29:16.517Z,50.60
2018-11-22T16:30:22.147Z,50.60
2018-11-22T16:31:26.348Z,50.80
2018-11-22T16:32:30.595Z,51.00
2018-11-22T16:33:34.722Z,51.00
2018-11-22T16:34:38.859Z,51.00
2018-11-22T16:35:43.019Z,51.10
2018-11-22T16:36:47.484Z,51.20
2018-11-22T16:37:51.542Z,51.20
2018-11-22T16:38:55.821Z,51.30
2018-11-22T16:40:00.109Z,51.20
2018-11-22T16:41:04.284Z,51.30
2018-11-22T16:42:08.345Z,51.50
2018-11-22T16:43:12.443Z,51.50
2018-11-22T16:44:16.593Z,51.50
2018-11-22T16:45:39.360Z,51.60
2018-11-22T16:46:43.407Z,51.70
2018-11-22T16:47:47.667Z,51.60
2018-11-22T16:48:51.773Z,51.70
2018-11-22T16:49:55.922Z,51.80
2018-11-22T16:51:00.018Z,52.60
2018-11-22T16:52:04.261Z,52.00
2018-11-22T16:53:08.610Z,52.10
2018-11-22T16:54:12.801Z,52.20
2018-11-22T16:55:17.185Z,52.30
2018-11-22T16:56:21.397Z,52.50
2018-11-22T16:57:25.503Z,52.60
2018-11-22T16:58:29.806Z,52.70
2018-11-22T16:59:34.216Z,52.70
2018-11-22T17:00:39.648Z,52.80
2018-11-22T17:01:43.821Z,52.80
2018-11-22T17:02:49.025Z,52.90
2018-11-22T17:03:53.120Z,53.10
2018-11-22T17:04:57.169Z,53.10
2018-11-22T17:06:01.315Z,53.20
2018-11-22T17:07:05.518Z,53.30
2018-11-22T17:08:10.137Z,54.00
2018-11-22T17:09:14.245Z,53.40
2018-11-22T17:10:19.890Z,53.40
2018-11-22T17:11:24.042Z,53.60
2018-11-22T17:12:28.426Z,53.60
2018-11-22T17:13:32.543Z,53.70
2018-11-22T17:14:36.648Z,53.80
2018-11-22T17:15:41.633Z,53.90
2018-11-22T17:16:45.879Z,53.90
2018-11-22T17:17:50.479Z,54.00
2018-11-22T17:18:54.506Z,54.10
2018-11-22T17:19:58.555Z,54.10
2018-11-22T17:21:02.787Z,54.20
2018-11-22T17:22:06.963Z,54.20
2018-11-22T17:23:11.053Z,54.20
2018-11-22T17:24:15.283Z,54.30
2018-11-22T17:25:23.692Z,54.30
2018-11-22T17:26:27.829Z,54.30
2018-11-22T17:27:31.977Z,54.30
2018-11-22T17:28:36.037Z,54.40
2018-11-22T17:29:40.099Z,54.60
2018-11-22T17:30:45.025Z,54.60
2018-11-22T17:31:49.223Z,54.70
2018-11-22T17:32:53.447Z,54.80
2018-11-22T17:33:57.558Z,54.90
2018-11-22T17:35:01.677Z,54.90
2018-11-22T17:36:06.173Z,54.90
2018-11-22T17:37:10.373Z,55.00
2018-11-22T17:38:14.873Z,55.00
2018-11-22T17:39:19.041Z,55.00
2018-11-22T17:40:26.698Z,55.10
2018-11-22T17:41:30.944Z,55.20
2018-11-22T17:42:35.128Z,55.10
2018-11-22T17:43:39.303Z,55.20
2018-11-22T17:44:43.620Z,55.40
2018-11-22T17:45:49.213Z,55.40
2018-11-22T17:46:53.530Z,55.40
2018-11-22T17:47:57.946Z,55.50
2018-11-22T17:49:02.074Z,55.50
2018-11-22T17:50:08.134Z,55.50
2018-11-22T17:51:12.470Z,55.60
2018-11-22T17:52:17.011Z,55.60
2018-11-22T17:53:21.190Z,55.60
2018-11-22T17:54:25.408Z,55.70
2018-11-22T17:55:30.495Z,55.80
2018-11-22T17:56:34.578Z,55.90
2018-11-22T17:57:39.020Z,55.90
2018-11-22T17:58:43.098Z,55.90
2018-11-22T17:59:47.280Z,56.00
2018-11-22T18:00:52.500Z,56.10
2018-11-22T18:01:56.793Z,56.20
2018-11-22T18:03:01.926Z,56.20
2018-11-22T18:04:06.082Z,56.20
2018-11-22T18:05:10.616Z,56.30
2018-11-22T18:06:14.727Z,56.40
2018-11-22T18:07:18.844Z,56.40
2018-11-22T18:08:23.008Z,56.40
2018-11-22T18:09:27.168Z,56.50
2018-11-22T18:10:33.661Z,56.50
2018-11-22T18:11:37.842Z,56.60
2018-11-22T18:12:43.321Z,56.60
2018-11-22T18:13:47.409Z,56.80
2018-11-22T18:14:51.500Z,56.70
2018-11-22T18:15:55.638Z,56.80
2018-11-22T18:16:59.789Z,56.90
2018-11-22T18:18:03.934Z,56.90
2018-11-22T18:19:08.065Z,57.00
2018-11-22T18:20:15.474Z,57.00
2018-11-22T18:21:19.738Z,57.10
2018-11-22T18:22:23.970Z,57.10
2018-11-22T18:23:28.281Z,57.10
2018-11-22T18:24:32.445Z,57.10
2018-11-22T18:25:36.647Z,57.20
2018-11-22T18:26:40.736Z,57.20
2018-11-22T18:27:44.917Z,57.30
2018-11-22T18:28:48.941Z,57.30
2018-11-22T18:29:53.022Z,57.30
2018-11-22T18:30:57.184Z,57.30
2018-11-22T18:32:01.292Z,57.50
2018-11-22T18:33:06.837Z,57.50
2018-11-22T18:34:10.986Z,57.50
2018-11-22T18:35:15.355Z,58.10
2018-11-22T18:36:19.586Z,57.60
2018-11-22T18:37:23.789Z,57.60
2018-11-22T18:38:27.889Z,57.60
2018-11-22T18:39:32.088Z,57.60
2018-11-22T18:40:37.792Z,57.60
2018-11-22T18:41:41.934Z,57.70
2018-11-22T18:42:47.277Z,57.70
2018-11-22T18:43:51.353Z,57.80
2018-11-22T18:44:55.493Z,57.80
2018-11-22T18:45:59.651Z,58.40
2018-11-22T18:47:03.989Z,58.00
2018-11-22T18:48:09.613Z,57.90
2018-11-22T18:49:13.680Z,58.00
2018-11-22T18:50:19.974Z,58.00
2018-11-22T18:51:24.843Z,58.10
2018-11-22T18:52:29.097Z,58.10
2018-11-22T18:53:33.904Z,58.10
2018-11-22T18:54:38.739Z,58.50
2018-11-22T18:55:42.801Z,58.10
2018-11-22T18:56:47.071Z,58.10
2018-11-22T18:57:51.424Z,58.10
2018-11-22T18:58:55.585Z,58.20
2018-11-22T18:59:59.800Z,58.30
2018-11-22T19:01:04.030Z,58.40
2018-11-22T19:02:08.175Z,58.40
2018-11-22T19:03:13.776Z,58.40
2018-11-22T19:04:18.566Z,58.50
2018-11-22T19:05:23.036Z,58.50
2018-11-22T19:06:27.336Z,58.50
2018-11-22T19:07:31.508Z,58.40
2018-11-22T19:08:35.644Z,58.60
2018-11-22T19:09:39.723Z,58.70
2018-11-22T19:10:44.520Z,58.70
2018-11-22T19:11:48.892Z,58.80
2018-11-22T19:12:54.214Z,58.70
2018-11-22T19:13:58.312Z,58.60
2018-11-22T19:15:02.456Z,59.50
2018-11-22T19:16:06.598Z,58.80
2018-11-22T19:17:10.891Z,59.50
2018-11-22T19:18:15.251Z,59.00
2018-11-22T19:19:19.494Z,59.60
2018-11-22T19:20:25.931Z,59.50
2018-11-22T19:21:30.028Z,59.00
2018-11-22T19:22:34.147Z,58.90
2018-11-22T19:23:38.256Z,59.00
2018-11-22T19:24:42.421Z,59.00
2018-11-22T19:25:46.907Z,59.00
2018-11-22T19:26:51.108Z,59.00
2018-11-22T19:27:56.059Z,59.00
2018-11-22T19:29:00.186Z,59.00
2018-11-22T19:30:05.785Z,59.00
2018-11-22T19:31:10.374Z,59.00
2018-11-22T19:32:16.241Z,59.00
2018-11-22T19:33:20.733Z,59.10
2018-11-22T19:34:24.859Z,59.10
2018-11-22T19:35:30.671Z,59.20
2018-11-22T19:36:34.892Z,59.30
2018-11-22T19:37:39.050Z,59.20
2018-11-22T19:38:43.181Z,59.30
2018-11-22T19:39:47.291Z,59.30
2018-11-22T19:40:51.439Z,59.40
2018-11-22T19:41:55.738Z,59.40
2018-11-22T19:43:01.279Z,59.40
2018-11-22T19:44:05.388Z,59.50
2018-11-22T19:45:11.067Z,59.40
2018-11-22T19:46:15.545Z,59.50
2018-11-22T19:47:21.431Z,59.50
2018-11-22T19:48:25.951Z,59.50
2018-11-22T19:49:30.097Z,59.50
2018-11-22T19:50:34.206Z,59.50
2018-11-22T19:51:38.541Z,59.50
2018-11-22T19:52:43.511Z,59.50
2018-11-22T19:53:47.778Z,59.60
2018-11-22T19:54:52.770Z,59.50
2018-11-22T19:55:57.010Z,59.50
2018-11-22T19:57:01.486Z,59.50
2018-11-22T19:58:07.205Z,59.50
2018-11-22T19:59:11.334Z,59.50
2018-11-22T20:00:16.587Z,59.60
2018-11-22T20:01:22.125Z,59.60
2018-11-22T20:02:27.481Z,59.60
2018-11-22T20:03:31.728Z,59.60
2018-11-22T20:04:36.740Z,59.70
2018-11-22T20:05:41.520Z,59.70
2018-11-22T20:06:45.701Z,59.70
2018-11-22T20:07:51.664Z,60.40
2018-11-22T20:08:55.754Z,59.60
2018-11-22T20:10:00.151Z,59.60
2018-11-22T20:11:04.423Z,59.70
2018-11-22T20:12:08.595Z,59.70
2018-11-22T20:13:12.707Z,59.80
2018-11-22T20:14:16.935Z,59.80
2018-11-22T20:15:21.127Z,59.70
2018-11-22T20:16:25.368Z,59.70
2018-11-22T20:17:29.593Z,59.90
2018-11-22T20:18:34.510Z,59.90
2018-11-22T20:19:38.864Z,60.00
2018-11-22T20:20:43.043Z,59.90
2018-11-22T20:21:47.257Z,60.00
2018-11-22T20:22:51.651Z,60.00
2018-11-22T20:23:55.822Z,60.10
2018-11-22T20:24:59.992Z,60.10
2018-11-22T20:26:04.128Z,60.10
2018-11-22T20:27:09.267Z,60.20
2018-11-22T20:28:12.317Z,60.10
2018-11-22T20:29:16.470Z,60.10
2018-11-22T20:30:24.640Z,60.20
2018-11-22T20:31:28.705Z,60.20
2018-11-22T20:32:38.678Z,60.20
2018-11-22T20:33:36.823Z,60.20
2018-11-22T20:34:40.975Z,60.20
2018-11-22T20:35:45.073Z,60.30
2018-11-22T20:36:49.274Z,60.40
2018-11-22T20:37:53.624Z,60.50
2018-11-22T20:38:57.903Z,60.50
2018-11-22T20:40:02.008Z,60.50
2018-11-22T20:41:06.188Z,60.50
2018-11-22T20:42:10.295Z,60.50
2018-11-22T20:43:14.540Z,61.30
2018-11-22T20:44:18.640Z,60.50
2018-11-22T20:45:23.998Z,60.60
2018-11-22T20:46:28.089Z,60.60
2018-11-22T20:47:32.270Z,60.60
2018-11-22T20:48:36.427Z,60.70
2018-11-22T20:49:40.649Z,60.60
2018-11-22T20:50:44.869Z,60.70
2018-11-22T20:51:48.969Z,60.70
2018-11-22T20:52:53.168Z,60.70
2018-11-22T20:53:57.425Z,60.70
2018-11-22T20:55:01.667Z,60.80
2018-11-22T20:56:05.811Z,60.80
2018-11-22T20:57:09.963Z,60.80
2018-11-22T20:58:14.095Z,60.90
2018-11-22T20:59:18.216Z,60.90
2018-11-22T21:00:23.688Z,60.90
2018-11-22T21:01:27.810Z,60.90
2018-11-22T21:02:31.930Z,61.10
2018-11-22T21:03:36.017Z,61.10
2018-11-22T21:04:40.098Z,61.20
2018-11-22T21:05:44.270Z,61.10
2018-11-22T21:06:48.575Z,61.10
2018-11-22T21:07:52.639Z,61.10
2018-11-22T21:08:56.794Z,61.20
2018-11-22T21:10:00.947Z,61.20
2018-11-22T21:11:04.978Z,61.20
2018-11-22T21:12:09.151Z,61.20
2018-11-22T21:13:16.665Z,61.20
2018-11-22T21:14:20.977Z,61.20
2018-11-22T21:15:26.476Z,62.00
2018-11-22T21:16:30.588Z,61.40
2018-11-22T21:17:34.651Z,61.40
2018-11-22T21:18:38.894Z,61.40
2018-11-22T21:19:44.535Z,61.70
2018-11-22T21:20:48.643Z,61.60
2018-11-22T21:21:52.766Z,61.70
2018-11-22T21:22:56.817Z,61.80
2018-11-22T21:24:00.972Z,61.80
2018-11-22T21:25:06.364Z,61.70
2018-11-22T21:26:14.565Z,61.90
2018-11-22T21:27:14.635Z,61.90
2018-11-22T21:28:18.732Z,61.90
2018-11-22T21:29:22.987Z,62.00
2018-11-22T21:30:31.669Z,62.10
2018-11-22T21:31:35.740Z,62.00
2018-11-22T21:32:39.903Z,62.10
2018-11-22T21:33:44.177Z,62.00
2018-11-22T21:34:48.344Z,62.10
2018-11-22T21:35:52.495Z,62.10
2018-11-22T21:36:56.639Z,62.00
2018-11-22T21:38:01.640Z,62.10
2018-11-22T21:39:08.540Z,62.10
2018-11-22T21:40:13.465Z,62.00
2018-11-22T21:41:17.601Z,62.00
2018-11-22T21:42:21.723Z,62.10
2018-11-22T21:43:25.834Z,62.10
2018-11-22T21:44:29.952Z,62.20
2018-11-22T21:45:34.656Z,62.10
2018-11-22T21:46:38.780Z,62.10
2018-11-22T21:47:43.108Z,62.00
2018-11-22T21:48:47.239Z,62.00
2018-11-22T21:49:51.404Z,62.00
2018-11-22T21:50:55.630Z,62.00
2018-11-22T21:51:59.773Z,62.00
2018-11-22T21:53:03.964Z,62.10
2018-11-22T21:54:08.060Z,62.20
2018-11-22T21:55:13.899Z,62.20
2018-11-22T21:56:18.003Z,62.30
2018-11-22T21:57:22.187Z,62.30
2018-11-22T21:58:26.507Z,62.30
2018-11-22T21:59:30.589Z,62.40
2018-11-22T22:00:38.027Z,62.50
2018-11-22T22:01:42.083Z,62.60
2018-11-22T22:02:52.499Z,62.60
2018-11-22T22:03:52.096Z,62.70
2018-11-22T22:04:56.188Z,62.70
2018-11-22T22:06:00.314Z,62.60
2018-11-22T22:07:04.613Z,62.60
2018-11-22T22:08:08.767Z,62.50
2018-11-22T22:09:12.916Z,62.70
2018-11-22T22:10:17.504Z,62.50
2018-11-22T22:11:21.590Z,62.60
2018-11-22T22:12:25.723Z,62.60
2018-11-22T22:13:29.874Z,62.60
2018-11-22T22:14:34.017Z,62.70
2018-11-22T22:15:38.725Z,62.70
2018-11-22T22:16:42.886Z,63.10
2018-11-22T22:17:47.355Z,62.70
2018-11-22T22:18:51.485Z,62.70
2018-11-22T22:19:55.852Z,62.70
2018-11-22T22:20:59.942Z,62.80
2018-11-22T22:22:04.114Z,62.70
2018-11-22T22:23:13.314Z,62.80
2018-11-22T22:24:12.560Z,62.90
2018-11-22T22:25:18.000Z,62.90
2018-11-22T22:26:22.175Z,63.00
2018-11-22T22:27:26.294Z,63.00
2018-11-22T22:28:30.436Z,62.90
2018-11-22T22:29:34.550Z,63.00
2018-11-22T22:30:38.786Z,63.80
2018-11-22T22:31:42.937Z,63.10
2018-11-22T22:32:47.866Z,63.10
2018-11-22T22:33:51.883Z,63.10
2018-11-22T22:34:56.103Z,63.10
2018-11-22T22:36:00.137Z,63.20
2018-11-22T22:37:04.225Z,63.10
2018-11-22T22:38:08.449Z,63.10
2018-11-22T22:39:12.899Z,64.00
2018-11-22T22:40:20.084Z,63.20
2018-11-22T22:41:24.217Z,63.30
2018-11-22T22:42:28.296Z,63.30
2018-11-22T22:43:32.439Z,63.40
2018-11-22T22:44:36.634Z,63.40
2018-11-22T22:45:40.747Z,63.50
2018-11-22T22:46:44.861Z,63.50
2018-11-22T22:47:49.549Z,63.60
2018-11-22T22:48:53.651Z,63.50
2018-11-22T22:49:57.731Z,63.50
2018-11-22T22:51:01.838Z,63.50
2018-11-22T22:52:08.911Z,63.60
2018-11-22T22:53:13.946Z,63.60
2018-11-22T22:54:18.006Z,63.50
2018-11-22T22:55:22.117Z,63.40
2018-11-22T22:56:26.218Z,63.50
2018-11-22T22:57:30.419Z,63.60
2018-11-22T22:58:34.580Z,63.50
2018-11-22T22:59:39.005Z,63.50
2018-11-22T23:00:49.237Z,63.60
2018-11-22T23:01:53.306Z,63.70
2018-11-22T23:02:59.065Z,63.70
2018-11-22T23:04:03.181Z,63.70
2018-11-22T23:05:07.419Z,63.70
2018-11-22T23:06:11.501Z,63.80
2018-11-22T23:07:15.560Z,63.80
2018-11-22T23:08:19.648Z,63.90
2018-11-22T23:09:23.685Z,64.00
2018-11-22T23:10:27.766Z,63.90
2018-11-22T23:11:32.020Z,64.00
2018-11-22T23:12:36.198Z,64.00
2018-11-22T23:13:40.495Z,64.10
2018-11-22T23:14:44.588Z,64.00
2018-11-22T23:15:48.721Z,64.00
2018-11-22T23:16:52.886Z,64.20
2018-11-22T23:17:56.913Z,64.10
2018-11-22T23:19:00.987Z,64.00
2018-11-22T23:20:06.598Z,63.90
2018-11-22T23:21:10.728Z,64.70
2018-11-22T23:22:14.894Z,63.90
2018-11-22T23:23:19.205Z,63.90
2018-11-22T23:24:23.257Z,63.90
2018-11-22T23:25:28.076Z,63.90
2018-11-22T23:26:32.178Z,64.00
2018-11-22T23:27:36.413Z,64.10
2018-11-22T23:28:40.534Z,64.10
2018-11-22T23:29:44.617Z,64.10
2018-11-22T23:30:48.800Z,64.10
2018-11-22T23:31:52.896Z,64.10
2018-11-22T23:33:04.661Z,64.10
2018-11-22T23:34:08.856Z,64.90
2018-11-22T23:35:12.945Z,64.20
2018-11-22T23:36:17.070Z,64.20
2018-11-22T23:37:21.382Z,64.30
2018-11-22T23:38:25.608Z,64.30
2018-11-22T23:39:29.705Z,64.30
2018-11-22T23:40:34.569Z,64.30
2018-11-22T23:41:38.579Z,64.30
2018-11-22T23:42:42.850Z,64.40
2018-11-22T23:43:46.930Z,64.30
2018-11-22T23:44:51.694Z,64.50
2018-11-22T23:45:55.775Z,64.40
2018-11-22T23:46:59.813Z,64.50
2018-11-22T23:48:03.932Z,64.50
2018-11-22T23:49:08.013Z,64.50
2018-11-22T23:50:14.255Z,64.40
2018-11-22T23:51:18.405Z,64.40
2018-11-22T23:52:22.475Z,64.40
2018-11-22T23:53:26.609Z,64.60
2018-11-22T23:54:30.753Z,64.50
2018-11-22T23:55:34.910Z,64.50
2018-11-22T23:56:39.031Z,64.70
2018-11-22T23:57:43.129Z,64.80
2018-11-22T23:58:47.576Z,64.80
2018-11-22T23:59:51.610Z,64.80
